createdAt,value
2023-11-27T00:01:10.376Z,91.40
2023-11-27T00:03:39.494Z,91.40
2023-11-27T00:06:08.589Z,91.10
2023-11-27T00:08:36.394Z,91.30
2023-11-27T00:11:07.095Z,91.20
2023-11-27T00:13:34.963Z,91.10
2023-11-27T00:16:03.252Z,91.10
2023-11-27T00:18:32.177Z,91.40
2023-11-27T00:21:00.027Z,91.30
2023-11-27T00:23:27.931Z,91.30
2023-11-27T00:25:56.277Z,91.20
2023-11-27T00:28:25.495Z,91.20
2023-11-27T00:30:53.686Z,91.30
2023-11-27T00:33:21.681Z,91.30
2023-11-27T00:35:49.753Z,91.30
2023-11-27T00:38:17.583Z,91.00
2023-11-27T00:40:47.402Z,91.40
2023-11-27T00:43:15.577Z,91.40
2023-11-27T00:45:44.835Z,91.40
2023-11-27T00:48:12.772Z,91.60
2023-11-27T00:50:40.770Z,91.60
2023-11-27T00:53:09.035Z,91.70
2023-11-27T00:55:36.813Z,91.70
2023-11-27T00:58:04.713Z,92.00
2023-11-27T01:00:32.600Z,92.10
2023-11-27T01:03:02.144Z,92.20
2023-11-27T01:05:30.130Z,92.40
2023-11-27T01:07:57.986Z,92.30
2023-11-27T01:10:25.838Z,92.50
2023-11-27T01:12:53.726Z,92.30
2023-11-27T01:15:22.475Z,92.30
2023-11-27T01:17:50.677Z,92.50
2023-11-27T01:20:20.491Z,92.60
2023-11-27T01:22:48.582Z,92.70
2023-11-27T01:25:16.830Z,92.50
2023-11-27T01:27:45.191Z,92.60
2023-11-27T01:30:13.975Z,92.60
2023-11-27T01:32:43.702Z,92.60
2023-11-27T01:35:11.516Z,92.90
2023-11-27T01:37:40.728Z,92.70
2023-11-27T01:40:09.996Z,92.70
2023-11-27T01:42:37.819Z,92.90
2023-11-27T01:45:06.332Z,92.90
2023-11-27T01:47:34.784Z,92.70
2023-11-27T01:50:03.217Z,92.80
2023-11-27T01:52:31.452Z,92.80
2023-11-27T01:55:00.885Z,92.90
2023-11-27T01:57:28.642Z,93.00
2023-11-27T01:59:57.925Z,93.10
2023-11-27T02:02:26.173Z,93.00
2023-11-27T02:04:54.152Z,93.00
2023-11-27T02:07:22.199Z,93.20
2023-11-27T02:09:50.080Z,93.10
2023-11-27T02:12:19.963Z,93.30
2023-11-27T02:14:50.842Z,93.20
2023-11-27T02:17:19.015Z,93.20
2023-11-27T02:19:46.867Z,93.20
2023-11-27T02:22:14.838Z,93.10
2023-11-27T02:24:44.411Z,93.30
2023-11-27T02:27:12.447Z,93.40
2023-11-27T02:29:40.294Z,93.40
2023-11-27T02:32:08.745Z,93.40
2023-11-27T02:34:36.558Z,93.20
2023-11-27T02:37:04.754Z,93.40
2023-11-27T02:39:32.631Z,93.50
2023-11-27T02:42:02.013Z,93.50
2023-11-27T02:44:29.752Z,93.60
2023-11-27T02:46:57.880Z,93.50
2023-11-27T02:49:25.781Z,93.60
2023-11-27T02:51:53.910Z,93.50
2023-11-27T02:54:21.733Z,93.60
2023-11-27T02:56:49.804Z,93.60
2023-11-27T02:59:19.307Z,93.70
2023-11-27T03:01:48.280Z,93.70
2023-11-27T03:04:16.281Z,93.60
2023-11-27T03:06:43.234Z,93.70
2023-11-27T03:09:11.521Z,93.60
2023-11-27T03:11:39.335Z,93.50
2023-11-27T03:14:08.289Z,93.60
2023-11-27T03:16:37.550Z,93.30
2023-11-27T03:19:05.442Z,93.50
2023-11-27T03:21:33.676Z,93.50
2023-11-27T03:24:01.507Z,93.40
2023-11-27T03:26:29.458Z,93.50
2023-11-27T03:28:57.258Z,93.50
2023-11-27T03:31:25.151Z,93.50
2023-11-27T03:33:54.419Z,93.20
2023-11-27T03:36:22.274Z,93.50
2023-11-27T03:38:50.063Z,93.50
2023-11-27T03:41:22.320Z,93.60
2023-11-27T03:43:50.527Z,93.40
2023-11-27T03:46:18.705Z,93.40
2023-11-27T03:48:46.564Z,93.60
2023-11-27T03:51:15.973Z,93.70
2023-11-27T03:53:43.690Z,93.60
2023-11-27T03:56:11.713Z,93.50
2023-11-27T03:58:39.561Z,93.50
2023-11-27T04:01:07.953Z,93.50
2023-11-27T04:03:39.996Z,93.60
2023-11-27T04:06:08.578Z,93.60
2023-11-27T04:08:39.600Z,93.50
2023-11-27T04:11:14.313Z,93.80
2023-11-27T04:13:42.527Z,93.60
2023-11-27T04:16:11.632Z,93.70
2023-11-27T04:18:39.700Z,93.60
2023-11-27T04:21:08.283Z,93.60
2023-11-27T04:23:37.620Z,93.70
2023-11-27T04:26:06.102Z,93.40
2023-11-27T04:28:34.287Z,93.40
2023-11-27T04:31:02.141Z,93.50
2023-11-27T04:33:30.005Z,93.40
2023-11-27T04:35:57.943Z,93.40
2023-11-27T04:38:25.768Z,93.40
2023-11-27T04:40:55.030Z,93.40
2023-11-27T04:43:23.472Z,93.50
2023-11-27T04:45:51.736Z,93.50
2023-11-27T04:48:20.866Z,93.30
2023-11-27T04:50:48.694Z,93.50
2023-11-27T04:53:16.578Z,93.50
2023-11-27T04:55:44.503Z,93.50
2023-11-27T04:58:13.743Z,93.70
2023-11-27T05:00:41.604Z,93.60
2023-11-27T05:03:09.469Z,93.50
2023-11-27T05:05:37.916Z,93.60
2023-11-27T05:08:06.472Z,93.50
2023-11-27T05:10:40.367Z,93.50
2023-11-27T05:13:08.378Z,93.80
2023-11-27T05:15:37.608Z,93.70
2023-11-27T05:18:05.966Z,93.80
2023-11-27T05:20:33.889Z,93.70
2023-11-27T05:23:02.884Z,93.70
2023-11-27T05:25:30.792Z,93.70
2023-11-27T05:27:58.667Z,93.90
2023-11-27T05:30:26.541Z,93.80
2023-11-27T05:32:55.962Z,93.70
2023-11-27T05:35:23.724Z,93.70
2023-11-27T05:38:01.032Z,93.70
2023-11-27T05:40:29.438Z,93.80
2023-11-27T05:42:57.483Z,93.60
2023-11-27T05:45:25.390Z,93.60
2023-11-27T05:47:53.269Z,93.50
2023-11-27T05:50:23.916Z,93.20
2023-11-27T05:52:52.837Z,93.50
2023-11-27T05:55:21.885Z,93.50
2023-11-27T05:57:49.762Z,93.50
2023-11-27T06:00:18.124Z,93.50
2023-11-27T06:02:46.051Z,93.40
2023-11-27T06:05:16.588Z,93.30
2023-11-27T06:07:46.702Z,93.30
2023-11-27T06:10:15.169Z,93.40
2023-11-27T06:12:43.059Z,93.30
2023-11-27T06:15:15.046Z,93.20
2023-11-27T06:17:42.992Z,93.20
2023-11-27T06:20:13.667Z,93.20
2023-11-27T06:22:41.823Z,93.30
2023-11-27T06:25:12.032Z,93.30
2023-11-27T06:27:39.922Z,93.20
2023-11-27T06:30:12.635Z,93.20
2023-11-27T06:32:41.291Z,93.30
2023-11-27T06:35:12.992Z,93.40
2023-11-27T06:37:41.174Z,93.40
2023-11-27T06:40:13.112Z,93.40
2023-11-27T06:42:41.118Z,93.50
2023-11-27T06:45:10.062Z,93.40
2023-11-27T06:47:38.122Z,93.40
2023-11-27T06:50:07.081Z,93.40
2023-11-27T06:52:34.908Z,93.40
2023-11-27T06:55:03.051Z,93.40
2023-11-27T06:57:32.572Z,93.40
2023-11-27T07:00:00.342Z,93.20
2023-11-27T07:02:30.460Z,93.20
2023-11-27T07:04:58.670Z,93.20
2023-11-27T07:07:26.536Z,93.40
2023-11-27T07:09:57.153Z,93.40
2023-11-27T07:12:25.221Z,93.30
2023-11-27T07:14:54.449Z,93.40
2023-11-27T07:17:23.082Z,93.30
2023-11-27T07:19:51.186Z,93.30
2023-11-27T07:22:19.364Z,93.30
2023-11-27T07:24:47.246Z,93.20
2023-11-27T07:27:16.734Z,93.20
2023-11-27T07:29:44.554Z,93.30
2023-11-27T07:32:13.779Z,93.20
2023-11-27T07:34:42.104Z,93.20
2023-11-27T07:37:09.913Z,93.20
2023-11-27T07:39:38.455Z,93.20
2023-11-27T07:42:07.751Z,93.30
2023-11-27T07:44:35.527Z,93.20
2023-11-27T07:47:03.502Z,93.20
2023-11-27T07:49:32.931Z,93.20
2023-11-27T07:52:00.709Z,92.90
2023-11-27T07:54:29.196Z,93.00
2023-11-27T07:56:57.007Z,93.00
2023-11-27T07:59:27.047Z,93.00
2023-11-27T08:01:55.165Z,92.90
2023-11-27T08:04:23.024Z,93.00
2023-11-27T08:06:52.258Z,93.00
2023-11-27T08:09:20.638Z,93.10
2023-11-27T08:11:48.517Z,92.80
2023-11-27T08:14:18.445Z,92.70
2023-11-27T08:16:47.325Z,92.50
2023-11-27T08:19:18.137Z,92.70
2023-11-27T08:21:46.593Z,92.80
2023-11-27T08:24:15.867Z,92.60
2023-11-27T08:26:50.308Z,92.80
2023-11-27T08:29:19.275Z,92.90
2023-11-27T08:31:47.331Z,92.90
2023-11-27T08:34:15.434Z,93.10
2023-11-27T08:36:44.497Z,92.90
2023-11-27T08:39:15.628Z,92.80
2023-11-27T08:41:44.076Z,92.80
2023-11-27T08:44:12.147Z,92.80
2023-11-27T08:46:40.111Z,92.80
2023-11-27T08:49:08.489Z,92.90
2023-11-27T08:51:36.295Z,92.80
2023-11-27T08:54:04.310Z,92.90
2023-11-27T08:56:35.091Z,92.60
2023-11-27T08:59:03.061Z,92.60
2023-11-27T09:01:31.038Z,92.30
2023-11-27T09:03:58.958Z,92.40
2023-11-27T09:06:26.799Z,92.40
2023-11-27T09:08:54.822Z,92.60
2023-11-27T09:11:24.249Z,92.80
2023-11-27T09:13:55.520Z,92.70
2023-11-27T09:16:23.424Z,92.70
2023-11-27T09:18:51.571Z,92.90
2023-11-27T09:21:19.503Z,93.00
2023-11-27T09:23:47.381Z,92.60
2023-11-27T09:26:15.732Z,92.60
2023-11-27T09:28:44.568Z,92.70
2023-11-27T09:31:13.859Z,92.40
2023-11-27T09:33:42.164Z,92.60
2023-11-27T09:36:16.287Z,92.50
2023-11-27T09:38:44.590Z,92.70
2023-11-27T09:41:13.829Z,92.80
2023-11-27T09:43:41.634Z,92.80
2023-11-27T09:46:20.985Z,92.80
2023-11-27T09:48:52.075Z,92.90
2023-11-27T09:51:21.587Z,92.80
2023-11-27T09:53:52.763Z,93.00
2023-11-27T09:56:28.233Z,92.90
2023-11-27T09:59:00.807Z,92.90
2023-11-27T10:01:31.080Z,92.70
2023-11-27T10:04:00.820Z,92.50
2023-11-27T10:06:33.648Z,92.60
2023-11-27T10:09:08.817Z,92.80
2023-11-27T10:11:38.031Z,92.80
2023-11-27T10:14:29.935Z,92.80
2023-11-27T10:17:00.128Z,92.80
2023-11-27T10:19:28.408Z,92.70
2023-11-27T10:21:58.262Z,92.90
2023-11-27T10:24:26.180Z,92.70
2023-11-27T10:26:54.105Z,92.70
2023-11-27T10:29:28.661Z,92.70
2023-11-27T10:31:59.393Z,92.70
2023-11-27T10:34:27.996Z,92.70
2023-11-27T10:36:58.948Z,92.60
2023-11-27T10:39:29.922Z,92.80
2023-11-27T10:41:58.650Z,92.70
2023-11-27T10:44:27.543Z,92.80
2023-11-27T10:46:57.121Z,92.70
2023-11-27T10:49:25.572Z,92.60
2023-11-27T10:51:55.644Z,92.60
2023-11-27T10:54:26.214Z,92.50
2023-11-27T10:56:58.149Z,92.50
2023-11-27T10:59:27.468Z,92.60
2023-11-27T11:02:03.252Z,92.80
2023-11-27T11:04:37.788Z,92.60
2023-11-27T11:07:12.935Z,92.80
2023-11-27T11:09:45.489Z,92.60
2023-11-27T11:12:14.062Z,92.50
2023-11-27T11:14:43.774Z,92.40
2023-11-27T11:17:19.256Z,92.60
2023-11-27T11:20:01.908Z,92.80
2023-11-27T11:22:40.832Z,92.70
2023-11-27T11:25:16.734Z,92.50
2023-11-27T11:27:51.844Z,92.70
2023-11-27T11:30:21.428Z,92.60
2023-11-27T11:32:53.266Z,92.50
2023-11-27T11:35:22.380Z,92.50
2023-11-27T11:37:51.495Z,92.40
2023-11-27T11:40:20.297Z,92.70
2023-11-27T11:42:51.211Z,92.90
2023-11-27T11:45:25.746Z,92.70
2023-11-27T11:47:58.938Z,92.50
2023-11-27T11:50:31.553Z,92.50
2023-11-27T11:53:04.483Z,92.80
2023-11-27T11:55:34.548Z,92.70
2023-11-27T11:58:07.690Z,92.70
2023-11-27T12:00:46.104Z,92.70
2023-11-27T12:03:18.372Z,92.60
2023-11-27T12:05:51.856Z,92.80
2023-11-27T12:08:20.610Z,92.50
2023-11-27T12:10:48.508Z,92.70
2023-11-27T12:13:16.480Z,92.70
2023-11-27T12:15:44.379Z,92.60
2023-11-27T12:18:14.153Z,92.40
2023-11-27T12:20:44.045Z,92.50
2023-11-27T12:23:13.845Z,92.60
2023-11-27T12:25:42.656Z,92.40
2023-11-27T12:28:10.747Z,92.70
2023-11-27T12:30:39.749Z,92.70
2023-11-27T12:33:10.433Z,92.60
2023-11-27T12:35:39.738Z,92.60
2023-11-27T12:38:09.323Z,92.70
2023-11-27T12:40:37.625Z,92.70
2023-11-27T12:43:08.159Z,92.70
2023-11-27T12:45:38.016Z,92.90
2023-11-27T12:48:08.957Z,93.00
2023-11-27T12:50:40.997Z,93.10
2023-11-27T12:53:10.910Z,93.10
2023-11-27T12:55:40.521Z,93.20
2023-11-27T12:58:15.707Z,93.20
2023-11-27T13:00:47.269Z,93.40
2023-11-27T13:03:16.383Z,93.40
2023-11-27T13:05:44.806Z,93.30
2023-11-27T13:08:14.173Z,93.40
2023-11-27T13:10:44.197Z,93.40
2023-11-27T13:13:12.832Z,93.40
2023-11-27T13:15:40.826Z,93.50
2023-11-27T13:18:13.615Z,93.60
2023-11-27T13:20:41.724Z,93.60
2023-11-27T13:23:09.782Z,93.70
2023-11-27T13:25:39.131Z,93.60
2023-11-27T13:28:09.004Z,93.60
2023-11-27T13:30:37.056Z,93.60
2023-11-27T13:33:12.252Z,93.70
2023-11-27T13:35:42.051Z,93.80
2023-11-27T13:38:16.320Z,93.70
2023-11-27T13:40:49.113Z,93.90
2023-11-27T13:43:18.782Z,93.80
2023-11-27T13:45:50.004Z,93.90
2023-11-27T13:48:22.889Z,93.90
2023-11-27T13:50:52.101Z,93.90
2023-11-27T13:53:25.616Z,93.90
2023-11-27T13:55:57.228Z,94.10
2023-11-27T13:58:27.693Z,94.10
2023-11-27T14:00:57.818Z,94.00
2023-11-27T14:03:27.631Z,94.10
2023-11-27T14:05:57.406Z,94.20
2023-11-27T14:08:41.098Z,94.20
2023-11-27T14:11:30.214Z,94.20
2023-11-27T14:14:06.295Z,94.00
2023-11-27T14:16:43.792Z,94.00
2023-11-27T14:19:29.439Z,94.10
2023-11-27T14:22:15.117Z,94.20
2023-11-27T14:24:58.284Z,94.10
2023-11-27T14:27:40.073Z,94.10
2023-11-27T14:30:13.887Z,94.20
2023-11-27T14:32:42.410Z,94.10
2023-11-27T14:35:10.564Z,94.10
2023-11-27T14:37:39.718Z,94.10
2023-11-27T14:40:20.764Z,94.10
2023-11-27T14:42:51.879Z,94.10
2023-11-27T14:45:19.974Z,94.20
2023-11-27T14:47:48.158Z,94.10
2023-11-27T14:50:21.629Z,94.10
2023-11-27T14:52:51.306Z,94.00
2023-11-27T14:55:21.227Z,94.10
2023-11-27T14:57:50.797Z,94.10
2023-11-27T15:00:27.428Z,94.10
2023-11-27T15:02:56.340Z,94.10
2023-11-27T15:05:30.118Z,94.10
2023-11-27T15:08:00.800Z,94.10
2023-11-27T15:10:29.456Z,94.10
2023-11-27T15:12:59.056Z,94.30
2023-11-27T15:15:27.556Z,94.30
2023-11-27T15:17:55.891Z,94.20
2023-11-27T15:20:24.569Z,94.20
2023-11-27T15:22:55.247Z,94.10
2023-11-27T15:25:24.700Z,94.30
2023-11-27T15:27:52.673Z,94.20
2023-11-27T15:30:23.726Z,94.30
2023-11-27T15:32:51.844Z,94.20
2023-11-27T15:35:20.936Z,94.30
2023-11-27T15:37:49.389Z,94.40
2023-11-27T15:40:21.613Z,94.30
2023-11-27T15:42:50.124Z,94.30
2023-11-27T15:45:18.178Z,94.20
2023-11-27T15:47:48.129Z,94.40
2023-11-27T15:50:16.139Z,94.40
2023-11-27T15:52:47.316Z,94.50
2023-11-27T15:55:16.046Z,94.50
2023-11-27T15:57:45.247Z,94.60
2023-11-27T16:00:16.031Z,94.40
2023-11-27T16:02:44.148Z,94.40
2023-11-27T16:05:13.899Z,94.50
2023-11-27T16:07:42.681Z,94.50
2023-11-27T16:10:15.971Z,94.60
2023-11-27T16:12:44.670Z,94.70
2023-11-27T16:15:13.863Z,94.60
2023-11-27T16:20:18.402Z,94.70
2023-11-27T16:22:46.959Z,94.70
2023-11-27T16:25:17.437Z,94.80
2023-11-27T16:27:47.149Z,94.90
2023-11-27T16:30:19.075Z,94.80
2023-11-27T16:32:47.139Z,94.90
2023-11-27T16:35:23.005Z,94.90
2023-11-27T16:37:52.663Z,94.80
2023-11-27T16:40:22.062Z,94.80
2023-11-27T16:42:52.662Z,94.80
2023-11-27T16:45:23.702Z,94.80
2023-11-27T16:47:52.956Z,94.90
2023-11-27T16:50:25.860Z,94.80
2023-11-27T16:52:56.120Z,94.90
2023-11-27T16:55:26.068Z,94.90
2023-11-27T16:57:55.285Z,94.90
2023-11-27T17:00:25.333Z,95.00
2023-11-27T17:02:54.364Z,95.00
2023-11-27T17:05:24.655Z,95.00
2023-11-27T17:07:52.623Z,94.90
2023-11-27T17:10:22.818Z,95.00
2023-11-27T17:12:51.587Z,95.00
2023-11-27T17:15:20.156Z,94.90
2023-11-27T17:17:51.388Z,95.00
2023-11-27T17:20:22.576Z,95.00
2023-11-27T17:23:03.718Z,94.90
2023-11-27T17:25:36.512Z,95.00
2023-11-27T17:28:07.935Z,95.00
2023-11-27T17:30:37.912Z,94.90
2023-11-27T17:33:06.409Z,94.90
2023-11-27T17:35:36.611Z,94.80
2023-11-27T17:38:07.660Z,94.90
2023-11-27T17:40:36.821Z,94.90
2023-11-27T17:43:04.813Z,95.00
2023-11-27T17:45:33.054Z,95.00
2023-11-27T17:48:02.402Z,95.00
2023-11-27T17:50:31.000Z,94.90
2023-11-27T17:53:00.217Z,94.90
2023-11-27T17:55:38.966Z,94.90
2023-11-27T17:58:15.226Z,94.90
2023-11-27T18:00:47.325Z,94.80
2023-11-27T18:03:15.982Z,94.80
2023-11-27T18:05:44.146Z,94.80
2023-11-27T18:08:13.110Z,94.80
2023-11-27T18:10:42.645Z,94.70
2023-11-27T18:13:11.471Z,94.90
2023-11-27T18:15:39.447Z,94.80
2023-11-27T18:18:07.572Z,94.90
2023-11-27T18:20:36.967Z,94.70
2023-11-27T18:23:04.859Z,94.70
2023-11-27T18:25:32.840Z,94.70
2023-11-27T18:28:02.137Z,94.90
2023-11-27T18:30:31.444Z,94.80
2023-11-27T18:32:59.936Z,94.90
2023-11-27T18:35:28.524Z,94.90
2023-11-27T18:37:56.713Z,94.90
2023-11-27T18:40:24.826Z,95.00
2023-11-27T18:42:53.871Z,94.90
2023-11-27T18:45:25.044Z,95.00
2023-11-27T18:47:53.103Z,95.00
2023-11-27T18:50:21.306Z,94.90
2023-11-27T18:52:49.771Z,94.90
2023-11-27T18:55:18.034Z,94.90
2023-11-27T18:57:48.290Z,95.00
2023-11-27T19:00:19.148Z,95.00
2023-11-27T19:02:48.594Z,94.90
2023-11-27T19:05:16.910Z,95.00
2023-11-27T19:07:44.933Z,95.10
2023-11-27T19:10:13.221Z,95.00
2023-11-27T19:12:41.836Z,95.10
2023-11-27T19:15:10.449Z,95.10
2023-11-27T19:17:38.508Z,95.10
2023-11-27T19:20:12.236Z,95.20
2023-11-27T19:22:40.541Z,95.10
2023-11-27T19:25:11.909Z,95.10
2023-11-27T19:27:40.248Z,95.00
2023-11-27T19:30:09.950Z,95.00
2023-11-27T19:32:38.325Z,95.10
2023-11-27T19:35:09.529Z,95.20
2023-11-27T19:37:37.545Z,95.00
2023-11-27T19:40:06.556Z,95.00
2023-11-27T19:42:34.933Z,95.10
2023-11-27T19:45:03.061Z,95.20
2023-11-27T19:47:31.165Z,95.10
2023-11-27T19:49:59.218Z,95.10
2023-11-27T19:52:28.771Z,95.10
2023-11-27T19:54:56.670Z,95.00
2023-11-27T19:57:24.569Z,95.20
2023-11-27T19:59:55.104Z,95.10
2023-11-27T20:02:23.658Z,95.20
2023-11-27T20:04:51.641Z,95.20
2023-11-27T20:07:19.762Z,95.10
2023-11-27T20:09:49.079Z,95.20
2023-11-27T20:12:16.954Z,95.10
2023-11-27T20:14:44.996Z,95.10
2023-11-27T20:17:13.142Z,95.00
2023-11-27T20:19:41.489Z,95.10
2023-11-27T20:22:09.693Z,95.00
2023-11-27T20:24:37.747Z,95.10
2023-11-27T20:27:07.552Z,95.20
2023-11-27T20:29:36.923Z,95.10
2023-11-27T20:32:05.197Z,95.10
2023-11-27T20:34:33.107Z,95.00
2023-11-27T20:37:00.996Z,95.10
2023-11-27T20:39:29.648Z,95.20
2023-11-27T20:41:57.561Z,95.00
2023-11-27T20:44:27.676Z,95.20
2023-11-27T20:46:55.686Z,95.10
2023-11-27T20:49:23.787Z,95.30
2023-11-27T20:51:52.170Z,95.40
2023-11-27T20:54:20.022Z,95.10
2023-11-27T20:56:47.931Z,95.20
2023-11-27T20:59:16.112Z,95.20
2023-11-27T21:01:45.551Z,95.30
2023-11-27T21:04:13.794Z,95.10
2023-11-27T21:06:41.736Z,95.10
2023-11-27T21:09:11.661Z,95.10
2023-11-27T21:11:39.552Z,95.20
2023-11-27T21:14:07.533Z,95.20
2023-11-27T21:16:38.446Z,95.10
2023-11-27T21:19:08.863Z,95.20
2023-11-27T21:21:36.945Z,95.10
2023-11-27T21:24:05.514Z,95.30
2023-11-27T21:26:33.613Z,95.20
2023-11-27T21:29:02.070Z,95.10
2023-11-27T21:31:31.807Z,95.20
2023-11-27T21:34:01.227Z,95.20
2023-11-27T21:36:30.682Z,95.30
2023-11-27T21:38:58.674Z,95.30
2023-11-27T21:41:30.609Z,95.20
2023-11-27T21:43:58.583Z,95.30
2023-11-27T21:46:26.591Z,95.30
2023-11-27T21:48:55.485Z,95.10
2023-11-27T21:51:23.369Z,95.10
2023-11-27T21:53:53.723Z,95.10
2023-11-27T21:56:21.841Z,95.00
2023-11-27T21:58:49.777Z,95.00
2023-11-27T22:01:18.177Z,95.00
2023-11-27T22:03:46.607Z,95.10
2023-11-27T22:06:14.626Z,95.00
2023-11-27T22:08:42.464Z,95.20
2023-11-27T22:11:11.933Z,95.00
2023-11-27T22:13:39.985Z,95.00
2023-11-27T22:16:08.867Z,94.90
2023-11-27T22:18:36.685Z,95.00
2023-11-27T22:21:04.892Z,94.90
2023-11-27T22:23:32.768Z,95.00
2023-11-27T22:26:01.089Z,94.90
2023-11-27T22:28:30.374Z,94.80
2023-11-27T22:30:58.437Z,94.90
2023-11-27T22:33:26.914Z,94.90
2023-11-27T22:35:55.249Z,94.80
2023-11-27T22:38:23.217Z,94.80
2023-11-27T22:40:51.160Z,94.90
2023-11-27T22:43:19.134Z,94.80
2023-11-27T22:45:48.360Z,94.80
2023-11-27T22:48:16.213Z,94.70
2023-11-27T22:50:44.138Z,94.70
2023-11-27T22:53:11.970Z,94.60
2023-11-27T22:55:39.781Z,94.40
2023-11-27T22:58:07.997Z,94.40
2023-11-27T23:00:35.830Z,94.10
2023-11-27T23:03:06.247Z,94.20
2023-11-27T23:05:34.604Z,94.10
2023-11-27T23:08:02.474Z,94.20
2023-11-27T23:10:30.896Z,94.10
2023-11-27T23:13:00.083Z,94.00
2023-11-27T23:15:28.842Z,93.80
2023-11-27T23:17:56.725Z,93.90
2023-11-27T23:20:26.041Z,94.00
2023-11-27T23:22:54.174Z,93.90
2023-11-27T23:25:22.176Z,94.00
2023-11-27T23:27:50.092Z,93.80
2023-11-27T23:30:18.053Z,93.50
2023-11-27T23:32:46.050Z,93.50
2023-11-27T23:35:14.012Z,93.60
2023-11-27T23:37:43.314Z,93.70
2023-11-27T23:40:11.967Z,93.70
2023-11-27T23:42:40.074Z,94.00
2023-11-27T23:45:08.779Z,94.00
2023-11-27T23:47:36.726Z,93.60
2023-11-27T23:50:05.142Z,93.60
2023-11-27T23:52:33.599Z,93.70
2023-11-27T23:55:06.432Z,93.80
2023-11-27T23:57:34.505Z,93.90
